createdAt,value
2022-11-05T00:00:02.482Z,1011.64
2022-11-05T00:07:01.696Z,1011.64
2022-11-05T00:14:01.661Z,1011.644
2022-11-05T00:21:01.849Z,1011.644
2022-11-05T00:28:01.563Z,1011.756
2022-11-05T00:35:02.264Z,1011.756
2022-11-05T00:42:02.082Z,1011.947
2022-11-05T00:49:02.178Z,1011.947
2022-11-05T00:56:01.743Z,1012.158
2022-11-05T01:00:02.483Z,1012.158
2022-11-05T01:07:01.698Z,1012.149
2022-11-05T01:14:01.685Z,1012.149
2022-11-05T01:21:01.683Z,1012.34
2022-11-05T01:28:02.259Z,1012.399
2022-11-05T01:35:02.400Z,1012.399
2022-11-05T01:42:01.775Z,1012.721
2022-11-05T01:49:03.345Z,1012.721
2022-11-05T01:56:02.001Z,1012.8
2022-11-05T02:00:01.594Z,1012.8
2022-11-05T02:07:01.592Z,1012.816
2022-11-05T02:14:02.124Z,1012.816
2022-11-05T02:21:02.261Z,1012.908
2022-11-05T02:28:01.877Z,1012.908
2022-11-05T02:35:01.918Z,1012.882
2022-11-05T02:42:05.050Z,1012.882
2022-11-05T02:49:02.065Z,1013.048
2022-11-05T02:56:01.384Z,1013.048
2022-11-05T03:00:02.121Z,1012.985
2022-11-05T03:07:01.546Z,1012.985
2022-11-05T03:14:01.502Z,1012.966
2022-11-05T03:21:01.484Z,1012.966
2022-11-05T03:28:01.840Z,1012.996
2022-11-05T03:35:02.102Z,1012.996
2022-11-05T03:42:02.340Z,1013.009
2022-11-05T03:49:02.347Z,1013.009
2022-11-05T03:56:01.703Z,1013.223
2022-11-05T04:00:02.292Z,1013.223
2022-11-05T04:07:01.729Z,1013.276
2022-11-05T04:14:02.339Z,1013.276
2022-11-05T04:21:02.269Z,1013.438
2022-11-05T04:28:02.319Z,1013.436
2022-11-05T04:35:01.621Z,1013.436
2022-11-05T04:42:02.288Z,1013.535
2022-11-05T04:49:02.332Z,1013.535
2022-11-05T04:56:01.382Z,1013.594
2022-11-05T05:00:02.087Z,1013.594
2022-11-05T05:07:01.999Z,1013.65
2022-11-05T05:14:01.938Z,1013.65
2022-11-05T05:21:01.413Z,1013.703
2022-11-05T05:28:02.050Z,1013.703
2022-11-05T05:35:02.675Z,1013.68
2022-11-05T05:42:01.682Z,1013.68
2022-11-05T05:49:03.655Z,1013.818
2022-11-05T05:56:02.331Z,1013.818
2022-11-05T06:00:01.908Z,1013.838
2022-11-05T06:07:02.045Z,1013.838
2022-11-05T06:14:01.378Z,1014.041
2022-11-05T06:21:02.071Z,1014.041
2022-11-05T06:28:01.777Z,1014.203
2022-11-05T06:35:01.484Z,1014.203
2022-11-05T06:42:17.976Z,1014.278
2022-11-05T06:49:01.873Z,1014.278
2022-11-05T06:56:02.009Z,1014.491
2022-11-05T07:00:07.358Z,1014.491
2022-11-05T07:07:01.851Z,1014.7
2022-11-05T07:14:02.261Z,1014.7
2022-11-05T07:21:02.133Z,1014.664
2022-11-05T07:28:02.167Z,1014.944
2022-11-05T07:35:01.688Z,1014.944
2022-11-05T07:42:02.343Z,1015.086
2022-11-05T07:49:01.516Z,1015.086
2022-11-05T07:56:01.713Z,1015.184
2022-11-05T08:00:02.321Z,1015.184
2022-11-05T08:07:02.266Z,1015.074
2022-11-05T08:14:01.498Z,1015.074
2022-11-05T08:21:02.060Z,1015.162
2022-11-05T08:28:01.772Z,1015.162
2022-11-05T08:35:02.115Z,1015.197
2022-11-05T08:42:01.621Z,1015.197
2022-11-05T08:49:01.543Z,1015.173
2022-11-05T08:56:02.202Z,1015.173
2022-11-05T09:00:01.850Z,1015.327
2022-11-05T09:07:01.928Z,1015.327
2022-11-05T09:14:01.405Z,1015.334
2022-11-05T09:21:01.721Z,1015.334
2022-11-05T09:28:01.715Z,1015.374
2022-11-05T09:35:02.018Z,1015.374
2022-11-05T09:42:01.632Z,1015.441
2022-11-05T09:49:01.927Z,1015.448
2022-11-05T09:56:01.772Z,1015.448
2022-11-05T10:00:02.502Z,1015.448
2022-11-05T10:07:01.694Z,1015.433
2022-11-05T10:14:02.342Z,1015.433
2022-11-05T10:21:01.589Z,1015.455
2022-11-05T10:28:01.487Z,1015.468
2022-11-05T10:35:01.693Z,1015.468
2022-11-05T10:42:02.312Z,1015.508
2022-11-05T10:49:01.556Z,1015.508
2022-11-05T10:56:01.694Z,1015.644
2022-11-05T11:00:02.418Z,1015.644
2022-11-05T11:07:02.255Z,1015.606
2022-11-05T11:14:02.008Z,1015.606
2022-11-05T11:21:02.011Z,1015.546
2022-11-05T11:28:02.104Z,1015.546
2022-11-05T11:35:01.752Z,1015.522
2022-11-05T11:42:01.572Z,1015.522
2022-11-05T11:49:01.408Z,1015.536
2022-11-05T11:56:01.553Z,1015.536
2022-11-05T12:00:09.631Z,1015.567
2022-11-05T12:07:02.236Z,1015.567
2022-11-05T12:14:02.344Z,1015.493
2022-11-05T12:21:01.929Z,1015.493
2022-11-05T12:28:01.737Z,1015.469
2022-11-05T12:35:01.884Z,1015.469
2022-11-05T12:42:01.950Z,1015.454
2022-11-05T12:49:02.142Z,1015.407
2022-11-05T12:56:01.453Z,1015.407
2022-11-05T13:00:03.477Z,1015.407
2022-11-05T13:07:01.749Z,1015.159
2022-11-05T13:14:02.931Z,1015.159
2022-11-05T13:21:02.342Z,1015.117
2022-11-05T13:28:02.318Z,1015.133
2022-11-05T13:35:02.403Z,1015.133
2022-11-05T13:42:01.596Z,1014.958
2022-11-05T13:49:01.879Z,1014.958
2022-11-05T13:56:02.132Z,1014.772
2022-11-05T14:00:01.784Z,1014.772
2022-11-05T14:07:01.751Z,1014.718
2022-11-05T14:14:02.320Z,1014.718
2022-11-05T14:21:02.294Z,1014.631
2022-11-05T14:28:01.362Z,1014.631
2022-11-05T14:35:02.261Z,1014.476
2022-11-05T14:42:01.826Z,1014.476
2022-11-05T14:49:08.133Z,1014.377
2022-11-05T14:56:02.047Z,1014.377
2022-11-05T15:00:01.940Z,1014.442
2022-11-05T15:07:02.103Z,1014.442
2022-11-05T15:14:01.872Z,1014.576
2022-11-05T15:21:02.178Z,1014.576
2022-11-05T15:28:01.783Z,1014.386
2022-11-05T15:35:02.463Z,1014.386
2022-11-05T15:42:01.981Z,1014.292
2022-11-05T15:49:02.090Z,1014.47
2022-11-05T15:56:01.765Z,1014.47
2022-11-05T16:00:02.719Z,1014.47
2022-11-05T16:07:02.367Z,1014.577
2022-11-05T16:14:01.864Z,1014.577
2022-11-05T16:21:01.471Z,1014.566
2022-11-05T16:28:02.192Z,1014.551
2022-11-05T16:35:02.261Z,1014.551
2022-11-05T16:42:01.772Z,1014.63
2022-11-05T16:49:01.865Z,1014.63
2022-11-05T16:56:01.931Z,1014.69
2022-11-05T17:00:02.690Z,1014.69
2022-11-05T17:07:01.845Z,1014.708
2022-11-05T17:14:01.472Z,1014.708
2022-11-05T17:21:01.541Z,1014.682
2022-11-05T17:28:02.069Z,1014.682
2022-11-05T17:35:02.753Z,1014.606
2022-11-05T17:42:01.885Z,1014.606
2022-11-05T17:49:01.580Z,1014.555
2022-11-05T17:56:01.489Z,1014.555
2022-11-05T18:00:02.129Z,1014.805
2022-11-05T18:07:01.615Z,1014.805
2022-11-05T18:14:01.909Z,1014.798
2022-11-05T18:21:02.258Z,1014.798
2022-11-05T18:28:02.164Z,1014.855
2022-11-05T18:35:01.829Z,1014.855
2022-11-05T18:42:02.028Z,1014.836
2022-11-05T18:49:02.114Z,1014.75
2022-11-05T18:56:02.286Z,1014.75
2022-11-05T19:00:02.022Z,1014.75
2022-11-05T19:07:04.798Z,1014.766
2022-11-05T19:14:01.526Z,1014.766
2022-11-05T19:21:01.820Z,1014.792
2022-11-05T19:28:01.535Z,1014.741
2022-11-05T19:35:01.815Z,1014.741
2022-11-05T19:42:04.119Z,1014.802
2022-11-05T19:49:02.370Z,1014.802
2022-11-05T19:56:01.520Z,1014.436
2022-11-05T20:00:02.275Z,1014.436
2022-11-05T20:07:01.409Z,1014.614
2022-11-05T20:14:01.729Z,1014.614
2022-11-05T20:21:01.545Z,1014.889
2022-11-05T20:28:01.568Z,1014.889
2022-11-05T20:35:01.756Z,1014.831
2022-11-05T20:42:01.929Z,1014.831
2022-11-05T20:49:02.179Z,1014.666
2022-11-05T20:56:07.466Z,1014.666
2022-11-05T21:00:02.547Z,1014.745
2022-11-05T21:07:02.284Z,1014.745
2022-11-05T21:14:02.215Z,1014.866
2022-11-05T21:21:02.135Z,1014.866
2022-11-05T21:28:01.766Z,1014.864
2022-11-05T21:35:01.686Z,1014.864
2022-11-05T21:42:02.326Z,1014.799
2022-11-05T21:49:01.750Z,1014.238
2022-11-05T21:56:01.651Z,1014.238
2022-11-05T22:00:02.646Z,1014.238
2022-11-05T22:07:02.317Z,1014.536
2022-11-05T22:14:01.528Z,1014.536
2022-11-05T22:21:02.045Z,1014.468
2022-11-05T22:28:01.799Z,1014.423
2022-11-05T22:35:02.176Z,1014.423
2022-11-05T22:42:08.035Z,1014.172
2022-11-05T22:49:01.423Z,1014.172
2022-11-05T22:56:01.424Z,1013.867
2022-11-05T23:00:02.144Z,1013.867
2022-11-05T23:07:01.882Z,1013.795
2022-11-05T23:14:01.768Z,1013.795
2022-11-05T23:21:02.150Z,1013.996
2022-11-05T23:28:02.312Z,1013.996
2022-11-05T23:35:02.767Z,1013.855
2022-11-05T23:42:02.372Z,1013.855
2022-11-05T23:49:02.082Z,1013.772
2022-11-05T23:56:01.924Z,1013.772
